logo
Search for airport 
image banner adimage banner adimage banner ad
image banner ad

FABL - Bram Fischer International

Located in Bloemfontein, South Africa

ICAO - FABL, IATA - BFN

Data provided by Airmate  

General information

Coordinates: S29°5'38" E26°18'14"
Elevation is 4457 feet MSL.
Magnetic variation is -22° East
View others Airports in Free State

Operational data

Special qualification required
Current time UTC:
Current local time:
Weather
METAR: FABL 180600Z VRB02KT 5000 BR NSC 12/11 Q1028 BECMG CAVOK
TAF: TAF FABL 180400Z 1806/1906 VRB03KT CAVOK TX22/1812Z TN11/1903Z PROB30 TEMPO 1900/1905 2000 BR BKN008
View NOTAMs / SUP AIP / TFR affecting this airport [VIEW]
Communications frequencies: [VIEW]

Runways:

RWY identifierQFULength (ft)Width (ft)SurfaceLDA (ft)
028396139ASPH8409
20180°8396139ASPH8409
12102°7150147ASPH7198
30282°7150147ASPH7198

Airport contact information

Address: Bloemfontein South Africa

Satellite view of FABL